createdAt,value
2023-02-18T00:01:12.869Z,42.81
2023-02-18T00:03:42.756Z,42.93
2023-02-18T00:06:19.309Z,42.98
2023-02-18T00:08:46.915Z,42.98
2023-02-18T00:11:15.010Z,42.98
2023-02-18T00:13:42.356Z,42.91
2023-02-18T00:16:14.864Z,43.09
2023-02-18T00:18:44.612Z,43.00
2023-02-18T00:21:11.337Z,42.97
2023-02-18T00:23:43.629Z,43.03
2023-02-18T00:26:14.223Z,43.10
2023-02-18T00:28:47.244Z,43.09
2023-02-18T00:31:24.744Z,43.11
2023-02-18T00:33:55.485Z,43.11
2023-02-18T00:36:23.962Z,43.07
2023-02-18T00:38:53.545Z,43.11
2023-02-18T00:41:24.913Z,43.11
2023-02-18T00:43:55.275Z,43.07
2023-02-18T00:46:23.091Z,43.15
2023-02-18T00:48:52.960Z,43.11
2023-02-18T00:51:21.088Z,43.04
2023-02-18T00:53:56.933Z,43.05
2023-02-18T00:56:29.976Z,42.95
2023-02-18T00:58:56.685Z,42.93
2023-02-18T01:01:26.278Z,43.02
2023-02-18T01:03:53.006Z,42.94
2023-02-18T01:06:23.221Z,42.89
2023-02-18T01:08:53.072Z,42.90
2023-02-18T01:11:19.888Z,42.89
2023-02-18T01:13:47.244Z,42.85
2023-02-18T01:16:16.607Z,42.93
2023-02-18T01:18:46.829Z,42.96
2023-02-18T01:21:13.768Z,43.01
2023-02-18T01:23:41.505Z,42.99
2023-02-18T01:26:11.018Z,43.01
2023-02-18T01:28:41.104Z,43.05
2023-02-18T01:31:13.210Z,43.00
2023-02-18T01:33:43.614Z,43.04
2023-02-18T01:36:12.533Z,43.02
2023-02-18T01:38:43.410Z,43.07
2023-02-18T01:41:14.378Z,43.14
2023-02-18T01:43:41.165Z,43.09
2023-02-18T01:46:21.214Z,43.15
2023-02-18T01:48:50.724Z,43.16
2023-02-18T01:51:28.181Z,43.14
2023-02-18T01:53:57.701Z,43.09
2023-02-18T01:56:36.078Z,43.07
2023-02-18T01:59:08.406Z,43.21
2023-02-18T02:01:35.745Z,43.14
2023-02-18T02:04:02.862Z,43.08
2023-02-18T02:06:31.042Z,43.07
2023-02-18T02:09:04.462Z,43.06
2023-02-18T02:11:55.775Z,43.15
2023-02-18T02:14:47.018Z,43.19
2023-02-18T02:17:27.404Z,43.22
2023-02-18T02:20:37.635Z,43.19
2023-02-18T02:23:07.416Z,43.23
2023-02-18T02:25:46.501Z,43.22
2023-02-18T02:28:19.129Z,43.27
2023-02-18T02:31:23.849Z,43.23
2023-02-18T02:34:05.908Z,43.34
2023-02-18T02:37:01.695Z,43.33
2023-02-18T02:39:43.857Z,43.29
2023-02-18T02:42:32.514Z,43.33
2023-02-18T02:45:52.491Z,43.27
2023-02-18T02:48:22.268Z,43.39
2023-02-18T02:51:25.617Z,43.39
2023-02-18T02:53:55.674Z,43.32
2023-02-18T02:56:28.876Z,43.27
2023-02-18T02:59:06.442Z,43.29
2023-02-18T03:02:00.363Z,43.23
2023-02-18T03:04:51.229Z,43.28
2023-02-18T03:07:52.174Z,43.21
2023-02-18T03:10:56.276Z,43.29
2023-02-18T03:13:41.302Z,43.26
2023-02-18T03:16:13.531Z,43.18
2023-02-18T03:18:58.028Z,43.24
2023-02-18T03:21:52.903Z,43.21
2023-02-18T03:24:31.512Z,43.18
2023-02-18T03:27:20.292Z,43.16
2023-02-18T03:29:55.775Z,43.23
2023-02-18T03:32:25.924Z,43.14
2023-02-18T03:35:00.907Z,43.17
2023-02-18T03:37:32.959Z,43.17
2023-02-18T03:40:01.816Z,43.18
2023-02-18T03:42:29.496Z,43.16
2023-02-18T03:44:56.987Z,43.19
2023-02-18T03:47:24.386Z,43.18
2023-02-18T03:49:54.501Z,43.14
2023-02-18T03:52:24.336Z,43.18
2023-02-18T03:54:54.166Z,43.19
2023-02-18T03:57:21.341Z,43.10
2023-02-18T03:59:53.367Z,43.12
2023-02-18T04:02:23.636Z,43.11
2023-02-18T04:04:50.382Z,43.17
2023-02-18T04:07:17.616Z,43.10
2023-02-18T04:09:44.390Z,43.05
2023-02-18T04:12:11.141Z,43.08
2023-02-18T04:14:38.006Z,43.02
2023-02-18T04:17:07.634Z,43.04
2023-02-18T04:19:34.536Z,43.13
2023-02-18T04:22:04.814Z,43.10
2023-02-18T04:24:31.718Z,43.02
2023-02-18T04:26:58.601Z,43.03
2023-02-18T04:29:27.946Z,43.07
2023-02-18T04:31:54.794Z,43.15
2023-02-18T04:34:21.503Z,43.17
2023-02-18T04:36:54.921Z,43.14
2023-02-18T04:39:21.754Z,43.21
2023-02-18T04:41:48.536Z,43.15
2023-02-18T04:44:15.356Z,43.20
2023-02-18T04:46:45.277Z,43.25
2023-02-18T04:49:12.104Z,43.27
2023-02-18T04:51:38.841Z,43.20
2023-02-18T04:54:08.674Z,43.19
2023-02-18T04:56:39.585Z,43.11
2023-02-18T04:59:12.854Z,43.08
2023-02-18T05:01:42.743Z,43.07
2023-02-18T05:04:12.501Z,43.09
2023-02-18T05:06:39.305Z,43.06
2023-02-18T05:09:06.919Z,43.10
2023-02-18T05:11:35.934Z,43.05
2023-02-18T05:14:05.880Z,43.04
2023-02-18T05:16:35.130Z,43.10
2023-02-18T05:19:05.401Z,43.03
2023-02-18T05:21:35.297Z,42.97
2023-02-18T05:24:04.463Z,43.13
2023-02-18T05:26:34.643Z,43.19
2023-02-18T05:29:11.181Z,43.18
2023-02-18T05:31:38.335Z,43.68
2023-02-18T05:34:05.403Z,44.25
2023-02-18T05:36:35.612Z,44.25
2023-02-18T05:39:05.895Z,44.22
2023-02-18T05:41:33.438Z,44.06
2023-02-18T05:44:00.342Z,44.26
2023-02-18T05:46:27.190Z,43.47
2023-02-18T05:48:54.572Z,42.63
2023-02-18T05:51:27.651Z,42.42
2023-02-18T05:53:54.671Z,42.24
2023-02-18T05:56:24.658Z,42.09
2023-02-18T05:58:52.181Z,42.31
2023-02-18T06:01:22.589Z,42.62
2023-02-18T06:03:52.483Z,42.96
2023-02-18T06:06:19.357Z,43.11
2023-02-18T06:08:46.143Z,43.40
2023-02-18T06:11:16.020Z,43.33
2023-02-18T06:13:43.203Z,43.30
2023-02-18T06:16:10.454Z,43.28
2023-02-18T06:18:37.380Z,43.22
2023-02-18T06:21:04.865Z,43.23
2023-02-18T06:23:37.019Z,43.20
2023-02-18T06:26:04.680Z,43.04
2023-02-18T06:28:31.880Z,43.49
2023-02-18T06:30:58.778Z,44.61
2023-02-18T06:33:26.599Z,44.69
2023-02-18T06:35:58.947Z,44.64
2023-02-18T06:38:29.128Z,44.12
2023-02-18T06:40:59.700Z,44.39
2023-02-18T06:43:44.366Z,43.89
2023-02-18T06:46:11.551Z,43.56
2023-02-18T06:48:39.103Z,43.63
2023-02-18T06:51:09.590Z,43.64
2023-02-18T06:53:40.645Z,43.82
2023-02-18T06:56:10.366Z,43.63
2023-02-18T06:58:38.332Z,43.40
2023-02-18T07:01:08.185Z,43.65
2023-02-18T07:03:38.080Z,43.54
2023-02-18T07:06:14.568Z,43.25
2023-02-18T07:08:41.300Z,43.18
2023-02-18T07:11:10.576Z,43.14
2023-02-18T07:13:40.538Z,42.96
2023-02-18T07:16:10.602Z,42.91
2023-02-18T07:18:40.819Z,42.88
2023-02-18T07:21:13.483Z,42.98
2023-02-18T07:23:42.620Z,42.71
2023-02-18T07:26:16.779Z,42.69
2023-02-18T07:28:59.570Z,42.56
2023-02-18T08:18:50.148Z,42.47
2023-02-18T08:21:22.970Z,42.58
2023-02-18T08:23:50.844Z,42.90
2023-02-18T08:26:19.232Z,43.10
2023-02-18T08:28:49.110Z,43.35
2023-02-18T08:31:28.880Z,43.70
2023-02-18T08:34:00.611Z,44.26
2023-02-18T08:36:29.304Z,44.60
2023-02-18T08:38:57.260Z,44.68
2023-02-18T08:41:24.245Z,44.78
2023-02-18T08:43:51.346Z,44.61
2023-02-18T08:46:25.239Z,44.34
2023-02-18T08:49:03.360Z,44.30
2023-02-18T08:51:33.743Z,44.29
2023-02-18T08:54:01.570Z,44.44
2023-02-18T08:56:28.758Z,44.63
2023-02-18T08:58:58.968Z,44.46
2023-02-18T09:01:32.328Z,44.46
2023-02-18T09:04:05.513Z,44.47
2023-02-18T09:06:32.815Z,44.51
2023-02-18T09:08:59.759Z,44.47
2023-02-18T09:11:26.785Z,43.46
2023-02-18T09:13:53.775Z,43.54
2023-02-18T09:16:20.673Z,43.62
2023-02-18T09:18:48.856Z,43.74
2023-02-18T09:21:18.290Z,43.68
2023-02-18T09:23:45.365Z,43.71
2023-02-18T09:26:15.345Z,43.62
2023-02-18T09:28:48.848Z,43.50
2023-02-18T09:31:18.738Z,43.43
2023-02-18T09:33:52.116Z,43.34
2023-02-18T09:36:19.672Z,43.26
2023-02-18T09:38:47.372Z,43.28
2023-02-18T09:41:35.395Z,43.17
2023-02-18T09:44:27.741Z,43.01
2023-02-18T10:06:12.666Z,43.99
2023-02-18T10:08:52.281Z,43.98
2023-02-18T10:11:33.991Z,44.06
2023-02-18T10:16:38.911Z,44.26
2023-02-18T10:21:43.421Z,44.27
2023-02-18T10:26:53.398Z,44.19
2023-02-18T10:29:27.175Z,44.05
2023-02-18T10:32:05.073Z,44.12
2023-02-18T10:37:55.476Z,43.74
2023-02-18T10:40:40.122Z,43.84
2023-02-18T10:43:13.000Z,43.77
2023-02-18T10:49:08.720Z,43.94
2023-02-18T10:51:47.079Z,43.93
2023-02-18T10:54:16.502Z,43.97
2023-02-18T10:56:52.117Z,43.98
2023-02-18T10:59:47.855Z,43.91
2023-02-18T11:02:19.225Z,43.89
2023-02-18T11:04:53.118Z,43.87
2023-02-18T11:07:30.769Z,43.86
2023-02-18T11:10:22.665Z,43.87
2023-02-18T11:12:56.110Z,43.97
2023-02-18T11:15:28.846Z,43.89
2023-02-18T11:17:58.351Z,43.85
2023-02-18T11:20:29.684Z,43.78
2023-02-18T11:23:18.209Z,43.79
2023-02-18T11:28:48.572Z,43.79
2023-02-18T11:31:45.443Z,43.79
2023-02-18T11:34:20.339Z,43.83
2023-02-18T11:36:53.106Z,44.25
2023-02-18T11:39:26.362Z,44.04
2023-02-18T11:42:06.137Z,44.07
2023-02-18T11:44:43.368Z,43.83
2023-02-18T11:47:13.301Z,43.70
2023-02-18T11:49:45.875Z,43.62
2023-02-18T11:52:28.140Z,43.55
2023-02-18T11:55:08.751Z,43.41
2023-02-18T11:57:40.015Z,43.42
2023-02-18T12:00:42.393Z,43.71
2023-02-18T12:03:55.110Z,43.60
2023-02-18T12:06:40.387Z,43.60
2023-02-18T12:12:58.633Z,43.50
2023-02-18T12:15:47.861Z,43.42
2023-02-18T12:24:57.800Z,43.44
2023-02-18T12:27:57.542Z,43.39
2023-02-18T12:33:57.524Z,43.30
2023-02-18T12:40:23.179Z,43.26
2023-02-18T12:43:04.816Z,43.23
2023-02-18T12:45:31.752Z,43.25
2023-02-18T12:48:36.255Z,43.18
2023-02-18T12:51:25.097Z,43.17
2023-02-18T12:54:09.660Z,43.05
2023-02-18T12:57:04.943Z,42.97
2023-02-18T13:00:00.648Z,42.93
2023-02-18T13:02:48.417Z,42.91
2023-02-18T13:05:53.813Z,42.85
2023-02-18T13:08:42.347Z,42.91
2023-02-18T13:11:18.039Z,42.96
2023-02-18T13:14:13.389Z,42.75
2023-02-18T13:16:44.259Z,42.52
2023-02-18T13:19:25.875Z,42.52
2023-02-18T13:21:59.719Z,42.64
2023-02-18T13:24:45.152Z,42.61
2023-02-18T13:27:47.033Z,42.76
2023-02-18T13:30:39.163Z,42.81
2023-02-18T13:33:34.494Z,42.79
2023-02-18T13:36:46.163Z,42.81
2023-02-18T13:39:19.605Z,42.60
2023-02-18T13:41:48.938Z,40.62
2023-02-18T13:44:57.175Z,40.36
2023-02-18T13:47:45.034Z,40.22
2023-02-18T13:50:42.808Z,39.76
2023-02-18T13:53:09.479Z,39.33
2023-02-18T13:55:57.516Z,39.57
2023-02-18T13:58:39.143Z,39.18
2023-02-18T14:01:21.390Z,38.21
2023-02-18T14:03:52.809Z,36.93
2023-02-18T14:06:27.684Z,37.23
2023-02-18T14:09:12.952Z,37.19
2023-02-18T14:11:49.239Z,37.04
2023-02-18T14:14:33.586Z,36.93
2023-02-18T14:17:22.161Z,36.67
2023-02-18T14:20:04.474Z,37.05
2023-02-18T14:22:32.239Z,37.12
2023-02-18T14:25:29.348Z,37.23
2023-02-18T14:27:56.596Z,37.41
2023-02-18T14:30:23.666Z,37.32
2023-02-18T14:32:59.840Z,37.07
2023-02-18T14:35:38.984Z,36.95
2023-02-18T14:38:42.221Z,37.02
2023-02-18T14:41:19.414Z,37.14
2023-02-18T14:44:23.394Z,37.00
2023-02-18T14:47:28.167Z,37.02
2023-02-18T14:50:02.791Z,36.86
2023-02-18T14:53:01.700Z,38.63
2023-02-18T14:56:08.698Z,39.56
2023-02-18T14:58:46.066Z,39.88
2023-02-18T15:01:28.330Z,40.18
2023-02-18T15:03:56.662Z,40.53
2023-02-18T15:06:33.509Z,40.61
2023-02-18T15:09:03.468Z,40.78
2023-02-18T15:11:45.761Z,40.97
2023-02-18T15:14:25.350Z,41.09
2023-02-18T15:16:54.095Z,41.63
2023-02-18T15:19:24.765Z,42.98
2023-02-18T15:21:56.756Z,43.04
2023-02-18T15:24:32.220Z,42.73
2023-02-18T15:27:18.383Z,42.27
2023-02-18T15:30:05.655Z,42.14
2023-02-18T15:32:35.591Z,42.20
2023-02-18T15:35:14.284Z,42.31
2023-02-18T15:37:46.020Z,42.70
2023-02-18T15:40:16.911Z,42.82
2023-02-18T15:42:51.733Z,42.74
2023-02-18T15:45:30.036Z,43.13
2023-02-18T15:47:59.566Z,43.23
2023-02-18T15:50:35.940Z,43.45
2023-02-18T15:53:09.469Z,43.59
2023-02-18T15:55:48.231Z,43.56
2023-02-18T15:58:38.382Z,43.55
2023-02-18T16:01:08.260Z,43.56
2023-02-18T16:03:41.586Z,43.70
2023-02-18T16:06:31.641Z,44.22
2023-02-18T16:09:13.386Z,43.92
2023-02-18T16:11:44.276Z,43.94
2023-02-18T16:14:47.758Z,43.80
2023-02-18T16:17:22.084Z,43.90
2023-02-18T16:20:08.042Z,43.72
2023-02-18T16:22:43.219Z,44.21
2023-02-18T16:25:18.811Z,43.90
2023-02-18T16:27:54.048Z,44.29
2023-02-18T16:30:26.856Z,44.49
2023-02-18T16:33:15.683Z,44.36
2023-02-18T16:35:49.945Z,44.39
2023-02-18T16:38:23.884Z,44.12
2023-02-18T16:40:52.436Z,44.62
2023-02-18T16:43:25.753Z,44.79
2023-02-18T16:45:58.723Z,44.77
2023-02-18T16:48:32.389Z,44.79
2023-02-18T16:53:51.685Z,44.80
2023-02-18T16:56:25.000Z,44.66
2023-02-18T16:58:56.037Z,44.61
2023-02-18T17:01:41.050Z,44.50
2023-02-18T17:04:17.553Z,44.40
2023-02-18T17:09:57.393Z,44.68
2023-02-18T17:12:29.413Z,44.79
2023-02-18T17:15:00.262Z,44.78
2023-02-18T17:21:00.131Z,45.50
2023-02-18T17:23:28.074Z,45.37
2023-02-18T17:29:56.666Z,45.20
2023-02-18T17:35:31.786Z,44.73
2023-02-18T17:38:05.675Z,44.60
2023-02-18T17:40:36.224Z,44.79
2023-02-18T17:43:06.052Z,44.26
2023-02-18T17:45:54.554Z,44.53
2023-02-18T17:48:22.208Z,44.57
2023-02-18T17:51:33.270Z,44.67
2023-02-18T17:54:00.661Z,44.78
2023-02-18T17:56:30.445Z,44.64
2023-02-18T17:59:03.283Z,44.85
2023-02-18T18:02:07.753Z,44.84
2023-02-18T18:04:34.923Z,44.86
2023-02-18T18:07:05.091Z,44.93
2023-02-18T18:09:36.830Z,44.80
2023-02-18T18:12:03.772Z,45.02
2023-02-18T18:14:33.790Z,44.58
2023-02-18T18:17:03.969Z,45.03
2023-02-18T18:19:30.710Z,44.63
2023-02-18T18:22:02.791Z,44.42
2023-02-18T18:24:36.320Z,44.33
2023-02-18T18:27:03.240Z,44.54
2023-02-18T18:29:29.958Z,44.40
2023-02-18T18:31:56.777Z,44.20
2023-02-18T18:34:23.623Z,44.14
2023-02-18T18:36:56.463Z,44.11
2023-02-18T18:39:26.735Z,44.09
2023-02-18T18:41:53.912Z,44.05
2023-02-18T18:44:26.598Z,43.88
2023-02-18T18:46:53.458Z,43.84
2023-02-18T18:49:20.287Z,43.70
2023-02-18T18:51:52.373Z,43.72
2023-02-18T18:54:19.248Z,43.58
2023-02-18T18:56:51.688Z,43.47
2023-02-18T18:59:18.474Z,43.40
2023-02-18T19:01:50.417Z,43.30
2023-02-18T19:04:20.466Z,43.49
2023-02-18T19:06:48.296Z,43.14
2023-02-18T19:09:21.723Z,43.07
2023-02-18T19:11:48.426Z,43.10
2023-02-18T19:14:18.314Z,43.13
2023-02-18T19:16:46.186Z,43.16
2023-02-18T19:19:19.526Z,43.09
2023-02-18T19:22:09.387Z,43.11
2023-02-18T19:31:57.295Z,43.26
2023-02-18T19:37:52.465Z,43.21
2023-02-18T19:43:48.056Z,43.21
2023-02-18T19:46:17.268Z,43.12
2023-02-18T19:48:48.252Z,43.41
2023-02-18T19:51:17.685Z,43.21
2023-02-18T19:53:44.360Z,43.14
2023-02-18T19:56:56.405Z,43.13
2023-02-18T19:59:30.026Z,43.20
2023-02-18T20:01:56.793Z,43.23
2023-02-18T20:04:23.537Z,43.25
2023-02-18T20:06:50.326Z,43.18
2023-02-18T20:09:17.044Z,43.10
2023-02-18T20:11:43.791Z,43.03
2023-02-18T20:14:13.696Z,43.00
2023-02-18T20:16:44.686Z,42.96
2023-02-18T20:19:11.447Z,42.94
2023-02-18T20:21:38.248Z,42.96
2023-02-18T20:24:05.255Z,42.94
2023-02-18T20:26:34.484Z,42.86
2023-02-18T20:29:04.175Z,42.87
2023-02-18T20:31:34.788Z,43.05
2023-02-18T20:34:03.170Z,43.16
2023-02-18T20:36:29.962Z,42.95
2023-02-18T20:39:07.629Z,42.76
2023-02-18T20:41:47.185Z,42.68
2023-02-18T20:44:38.119Z,42.85
2023-02-18T20:47:10.828Z,43.02
2023-02-18T20:49:42.621Z,42.92
2023-02-18T20:52:33.640Z,42.84
2023-02-18T20:55:04.160Z,42.97
2023-02-18T20:58:09.747Z,42.90
2023-02-18T21:00:39.948Z,42.97
2023-02-18T21:03:10.322Z,42.89
2023-02-18T21:06:17.015Z,43.03
2023-02-18T21:08:47.540Z,43.00
2023-02-18T21:11:23.933Z,42.99
2023-02-18T21:13:57.177Z,42.97
2023-02-18T21:16:30.470Z,42.88
2023-02-18T21:32:19.248Z,42.94
2023-02-18T21:35:29.517Z,43.03
2023-02-18T21:37:59.833Z,43.02
2023-02-18T21:40:28.294Z,42.93
2023-02-18T21:42:55.342Z,42.99
2023-02-18T21:45:43.270Z,42.91
2023-02-18T21:48:14.364Z,43.01
2023-02-18T21:50:44.078Z,43.06
2023-02-18T21:53:19.982Z,42.98
2023-02-18T21:56:03.316Z,43.04
2023-02-18T22:01:56.751Z,43.06
2023-02-18T22:04:47.475Z,43.15
2023-02-18T22:07:20.272Z,43.04
2023-02-18T22:09:50.127Z,43.05
2023-02-18T22:12:18.280Z,43.07
2023-02-18T22:14:45.063Z,43.70
2023-02-18T22:17:11.767Z,43.00
2023-02-18T22:19:39.318Z,42.16
2023-02-18T22:25:20.239Z,43.02
2023-02-18T22:27:47.100Z,43.06
2023-02-18T22:30:19.735Z,43.06
2023-02-18T22:33:07.249Z,42.96
2023-02-18T22:35:38.767Z,42.97
2023-02-18T22:38:05.624Z,42.94
2023-02-18T22:40:33.408Z,42.91
2023-02-18T22:43:00.134Z,42.85
2023-02-18T22:45:30.279Z,42.85
2023-02-18T22:48:00.901Z,42.82
2023-02-18T22:50:30.497Z,42.79
2023-02-18T22:53:18.133Z,42.76
2023-02-18T22:55:45.223Z,42.76
2023-02-18T22:58:49.326Z,42.74
2023-02-18T23:01:43.026Z,42.78
2023-02-18T23:04:14.336Z,42.78
2023-02-18T23:10:14.225Z,42.77
2023-02-18T23:12:44.479Z,42.75
2023-02-18T23:15:14.398Z,43.05
2023-02-18T23:17:41.261Z,42.71
2023-02-18T23:20:08.789Z,42.56
2023-02-18T23:22:38.632Z,43.02
2023-02-18T23:25:06.147Z,42.68
2023-02-18T23:27:35.954Z,42.50
2023-02-18T23:30:03.083Z,42.48
2023-02-18T23:32:33.369Z,42.45
2023-02-18T23:35:00.308Z,42.46
2023-02-18T23:37:30.127Z,42.46
2023-02-18T23:39:59.792Z,42.43
2023-02-18T23:42:30.333Z,42.37
2023-02-18T23:45:00.619Z,42.34
2023-02-18T23:47:30.356Z,42.34
2023-02-18T23:49:57.156Z,42.38
2023-02-18T23:52:26.791Z,42.30
2023-02-18T23:54:57.010Z,42.29
2023-02-18T23:57:23.780Z,42.28
2023-02-18T23:59:50.972Z,42.27
